首页
METAR-TAF:

METAR-TAF

机场 :

Chibougamau, 魁北克, 加拿大

纬度: 49-46N, 经度: 074-32W, 海拔: 388米

当前天气观测

该预报发布于48分钟前的19:12 UTC
风速12节,风向东转东南,有时为18节阵风
温度 -11°C
湿度 78%
气压 1006 hPa
能見度: 2.8公里
阴天层高于1800英尺
小雪

METAR: CYMT 181912Z AUTO 12012G18KT 1 3/4SM -SN OVC018 M11/M14 A2972 RMK VIS VRB 1 1/4-3 PRESFR SLP103

时间: 15:00 (20:00 UTC)

预报

该预报发布于2小时和21分钟前的17:39 UTC
预报有效从18日的 18点(UTC)到 19日的 01点(UTC)
风速10节,风向南转南东
能見度: 10公里
阴天层高于3000英尺
短暂存在
从 18日的 18点(UTC)到 18日的 19点(UTC)
阴天层高于2000英尺
小雪
从 18日的 1900点(UTC)
风速10节,风向南转南东
能見度: 1.2公里
层高于600英尺
小雪
短暂存在
从 18日的 19点(UTC)到 19日的 01点(UTC)
能見度: 4.8公里
阴天层高于1200英尺
小雪
成为
从 18日的 23点(UTC)到 19日的 01点(UTC)
风速3节,风向多变

TAF: CYMT 181739Z 1818/1901 15010KT P6SM OVC030 TEMPO 1818/1819 11/2SM -SN OVC020 FM181900 15010KT 3/4SM -SN VV006 TEMPO 1819/1901 3SM -SN OVC012 BECMG 1823/1901 VRB03KT RMK FCST BASED ON AUTO OBS. NXT FCST WILL BE ISSUED AT 191245Z

超过4000个机场的气象观测和天气预报(METAR&TAF报告)。

可查询的气象台以黄色和红色小点在地图上表示。

将鼠标移到小点上方,可查看气象台名称。

然后点击查看天气观测和预报。

如需切换地图:点击带黑十字的绿色按钮放大地图;点击带横线的绿色按钮缩小地图;或者点击绿色箭头查看邻近地区的地图。


METAR-TAF: